Addition Hills, Philippines

3:10 PM +08 on July 21, 2017 (GMT +0800)
Wack Wack Village, Mandaluyong | | Change Station

Elev 36 ft 14.59 °N, 121.06 °E | Updated 3 seconds ago

Partly Cloudy
Partly Cloudy
88.3 °F
Feels Like 109 °F
N
5.6
Wind Variable Wind from North
Gusts 7.6 mph

Today
High -- | Low -- °F
--% Chance of Precip.
Yesterday
High -- | Low -- °F
Precip. -- in
Pressure 29.80 in
Visibility 6.2 miles
Clouds Few 2300 ft
Few 2500 ft
Scattered Clouds 10000 ft
Heat Index 109 °F
Dew Point 83 °F
Humidity 83%
Rainfall 0.02 in
Snow Depth Not available.
5:36 AM 6:28 PM
Waning Crescent, 7% visible
METAR RPLL 210700Z 26015KT 9999 FEW023CB FEW025 SCT100 31/26 Q1009 NOSIG RMK A2980 CB SE
Pressure 29.80 in
Visibility 6.2 miles
Clouds Few 2300 ft
Few 2500 ft
Scattered Clouds 10000 ft
Heat Index 109 °F
Dew Point 83 °F
Humidity 83%
Rainfall 0.02 in
Snow Depth Not available.
5:36 AM 6:28 PM
Waning Crescent, 7% visible
METAR RPLL 210700Z 26015KT 9999 FEW023CB FEW025 SCT100 31/26 Q1009 NOSIG RMK A2980 CB SE

Get Severe Weather Alerts

Thanks for signing up!

Be on the lookout for a verification email in your inbox.

You'll start receiving the daily forecast at 6 AM.

×

10-Day Weather Forecast

No radar image for this location.
×

Almanac

Astronomy

Jul. 21, 2017 Rise Set
Actual Time
Civil Twilight
Nautical Twilight
Astronomical Twilight
Moon
Length of Visible Light
Length of Day
Tomorrow will be .
, % of the Moon is Illuminated

Today's Extremes

Country Highs Country Lows

Community

WunderPhotos

Category 6

Welcome to Category 6. This is the collective home for Weather Underground's featured writeups by Dr. Jeff Masters (right), Bob Henson (left), Chris Burt, and other regular contributors.

Nearby

Air Quality

  Air Quality AQ Index Pollutant
Not available.

Snow Depth

Station Depth Elevation

Earthquake Activity

City Distance Mag. Time & Date
Minimum magnitude displayed is 2.5.

Coastal Water Temperatures

Place Temperature

Stations

Nearby Weather Stations

Station Location Temp. Windchill Dew Point Humidity Wind Precip. Elev Updated Type